Hlavní strana
METAR-TAF:

METAR-TAF

Letiště :

Forlì, Itálie

zeměpisná šířka: 44-12N, zeměpisná délka: 012-04E, výška: 27 m

Aktuální stav počasí

Zpráva byla vytvořena před 8 hodinami a 58 minutami, v 16:50 UTC
Bezvětří
Teplota 2°C
Vlhkost vzduchu 51%
Tlak 1018 hPa
Viditelnost 10 km a více
Žádná oblačnost pod 1500 m, nevyskytují se cumulonimby.

METAR: LIPK 121650Z 00000KT CAVOK 02/M07 Q1018

Čas: 02:48 (01:48 UTC)


TAF: chybějící

Stav a předpovědi počasí z více než 4 000 letišť (zprávy METAR a TAF).

Červené a žluté tečky na mapě představují dostupné meteorologické stanice.

Když kurzor umístíte na tečku, zobrazí se název stanice.

Pak kliknutím zobrazíte stav a předpověď počasí.

Chcete-li změnit mapu, kliknutím na zelené tlačítko se znaménkem +mapu přiblížíte, kliknutím na zelené tlačítko se znaménkem – mapu oddálíte a kliknutím na zelené šipky přejdete na sousední mapy.


METAR-TAF: